sensor_id;sensor_type;location;lat;lon;timestamp;P1;durP1;ratioP1;P2;durP2;ratioP2
24663;SDS011;12791;50.992;13.788;2022-10-31T03:18:25;11.57;;;4.30;;
24663;SDS011;12791;50.992;13.788;2022-10-31T03:20:55;9.75;;;4.65;;
24663;SDS011;12791;50.992;13.788;2022-10-31T03:23:27;6.15;;;4.72;;
24663;SDS011;12791;50.992;13.788;2022-10-31T03:25:56;6.35;;;4.22;;
24663;SDS011;12791;50.992;13.788;2022-10-31T03:28:26;7.60;;;5.07;;
24663;SDS011;12791;50.992;13.788;2022-10-31T03:30:58;9.20;;;5.15;;
24663;SDS011;12791;50.992;13.788;2022-10-31T03:33:28;7.32;;;5.40;;
24663;SDS011;12791;50.992;13.788;2022-10-31T03:35:59;7.55;;;4.82;;
24663;SDS011;12791;50.992;13.788;2022-10-31T03:38:28;6.07;;;4.75;;
24663;SDS011;12791;50.992;13.788;2022-10-31T03:40:58;7.15;;;4.15;;
24663;SDS011;12791;50.992;13.788;2022-10-31T03:43:29;6.80;;;4.70;;
24663;SDS011;12791;50.992;13.788;2022-10-31T03:45:59;10.35;;;4.72;;
24663;SDS011;12791;50.992;13.788;2022-10-31T03:48:25;7.32;;;5.20;;
24663;SDS011;12791;50.992;13.788;2022-10-31T03:50:56;7.07;;;5.05;;
24663;SDS011;12791;50.992;13.788;2022-10-31T03:53:31;7.63;;;4.63;;
24663;SDS011;12791;50.992;13.788;2022-10-31T03:56:01;6.10;;;4.28;;
24663;SDS011;12791;50.992;13.788;2022-10-31T04:01:09;8.15;;;4.45;;
24663;SDS011;12791;50.992;13.788;2022-10-31T04:03:41;7.53;;;5.07;;
24663;SDS011;12791;50.992;13.788;2022-10-31T04:06:10;5.03;;;4.05;;
24663;SDS011;12791;50.992;13.788;2022-10-31T04:08:42;9.55;;;4.78;;
24663;SDS011;12791;50.992;13.788;2022-10-31T04:11:14;10.02;;;4.85;;
24663;SDS011;12791;50.992;13.788;2022-10-31T04:13:45;6.32;;;4.13;;
24663;SDS011;12791;50.992;13.788;2022-10-31T04:16:13;9.75;;;4.97;;
24663;SDS011;12791;50.992;13.788;2022-10-31T04:18:45;7.00;;;5.13;;
24663;SDS011;12791;50.992;13.788;2022-10-31T04:21:12;6.45;;;3.97;;
24663;SDS011;12791;50.992;13.788;2022-10-31T04:23:39;7.47;;;4.60;;
24663;SDS011;12791;50.992;13.788;2022-10-31T04:26:07;9.10;;;4.50;;
24663;SDS011;12791;50.992;13.788;2022-10-31T04:28:37;6.10;;;3.95;;
24663;SDS011;12791;50.992;13.788;2022-10-31T04:31:04;5.18;;;4.13;;
24663;SDS011;12791;50.992;13.788;2022-10-31T04:33:31;6.50;;;4.25;;
24663;SDS011;12791;50.992;13.788;2022-10-31T04:36:01;10.10;;;5.55;;
24663;SDS011;12791;50.992;13.788;2022-10-31T04:38:28;9.55;;;4.65;;
24663;SDS011;12791;50.992;13.788;2022-10-31T04:40:55;7.55;;;4.18;;
24663;SDS011;12791;50.992;13.788;2022-10-31T04:43:22;9.60;;;4.60;;
24663;SDS011;12791;50.992;13.788;2022-10-31T04:45:49;7.97;;;4.53;;
24663;SDS011;12791;50.992;13.788;2022-10-31T04:48:16;5.18;;;4.45;;
24663;SDS011;12791;50.992;13.788;2022-10-31T04:50:43;7.20;;;4.22;;
24663;SDS011;12791;50.992;13.788;2022-10-31T04:53:11;10.77;;;4.43;;
24663;SDS011;12791;50.992;13.788;2022-10-31T04:55:38;10.50;;;5.05;;
24663;SDS011;12791;50.992;13.788;2022-10-31T04:58:04;12.38;;;4.57;;
24663;SDS011;12791;50.992;13.788;2022-10-31T05:00:31;5.85;;;3.97;;
24663;SDS011;12791;50.992;13.788;2022-10-31T05:02:58;5.97;;;4.30;;
24663;SDS011;12791;50.992;13.788;2022-10-31T05:05:26;9.15;;;4.78;;
24663;SDS011;12791;50.992;13.788;2022-10-31T05:07:54;8.77;;;4.43;;
24663;SDS011;12791;50.992;13.788;2022-10-31T05:10:23;5.95;;;4.10;;
24663;SDS011;12791;50.992;13.788;2022-10-31T05:12:51;6.18;;;4.00;;
24663;SDS011;12791;50.992;13.788;2022-10-31T05:15:20;7.47;;;5.00;;
24663;SDS011;12791;50.992;13.788;2022-10-31T05:17:48;5.38;;;4.47;;
24663;SDS011;12791;50.992;13.788;2022-10-31T05:20:16;7.22;;;4.00;;
24663;SDS011;12791;50.992;13.788;2022-10-31T05:22:44;6.72;;;4.07;;
24663;SDS011;12791;50.992;13.788;2022-10-31T05:25:12;5.22;;;4.55;;
24663;SDS011;12791;50.992;13.788;2022-10-31T05:27:41;7.30;;;4.35;;
24663;SDS011;12791;50.992;13.788;2022-10-31T05:30:09;11.45;;;4.35;;
24663;SDS011;12791;50.992;13.788;2022-10-31T05:32:40;7.57;;;4.35;;
24663;SDS011;12791;50.992;13.788;2022-10-31T05:35:09;9.25;;;4.00;;
24663;SDS011;12791;50.992;13.788;2022-10-31T05:37:38;6.50;;;4.10;;
24663;SDS011;12791;50.992;13.788;2022-10-31T05:40:06;5.72;;;3.90;;
24663;SDS011;12791;50.992;13.788;2022-10-31T05:42:34;5.93;;;3.70;;
24663;SDS011;12791;50.992;13.788;2022-10-31T05:45:04;7.60;;;4.35;;
24663;SDS011;12791;50.992;13.788;2022-10-31T05:47:32;7.85;;;3.70;;
24663;SDS011;12791;50.992;13.788;2022-10-31T05:49:59;7.78;;;3.88;;
24663;SDS011;12791;50.992;13.788;2022-10-31T05:52:26;5.00;;;3.08;;
24663;SDS011;12791;50.992;13.788;2022-10-31T05:54:53;5.10;;;3.78;;
24663;SDS011;12791;50.992;13.788;2022-10-31T05:57:20;7.05;;;4.20;;
24663;SDS011;12791;50.992;13.788;2022-10-31T05:59:47;7.47;;;3.83;;
24663;SDS011;12791;50.992;13.788;2022-10-31T06:02:19;5.30;;;3.45;;
24663;SDS011;12791;50.992;13.788;2022-10-31T06:04:46;4.10;;;3.60;;
24663;SDS011;12791;50.992;13.788;2022-10-31T06:07:13;5.90;;;3.42;;
24663;SDS011;12791;50.992;13.788;2022-10-31T06:09:40;7.50;;;3.70;;
24663;SDS011;12791;50.992;13.788;2022-10-31T06:12:10;5.63;;;3.50;;
24663;SDS011;12791;50.992;13.788;2022-10-31T06:14:37;6.30;;;3.28;;
24663;SDS011;12791;50.992;13.788;2022-10-31T06:17:04;8.43;;;3.47;;
24663;SDS011;12791;50.992;13.788;2022-10-31T06:19:32;6.30;;;3.50;;
24663;SDS011;12791;50.992;13.788;2022-10-31T06:21:59;8.55;;;3.72;;
24663;SDS011;12791;50.992;13.788;2022-10-31T06:24:26;3.92;;;3.30;;
24663;SDS011;12791;50.992;13.788;2022-10-31T06:26:53;8.55;;;3.47;;
24663;SDS011;12791;50.992;13.788;2022-10-31T06:29:19;8.20;;;3.75;;
24663;SDS011;12791;50.992;13.788;2022-10-31T06:31:46;5.20;;;3.50;;
24663;SDS011;12791;50.992;13.788;2022-10-31T06:34:13;6.97;;;3.42;;
24663;SDS011;12791;50.992;13.788;2022-10-31T06:36:41;6.35;;;3.53;;
24663;SDS011;12791;50.992;13.788;2022-10-31T06:39:08;6.50;;;3.30;;
24663;SDS011;12791;50.992;13.788;2022-10-31T06:41:35;6.72;;;3.53;;
24663;SDS011;12791;50.992;13.788;2022-10-31T06:44:04;10.57;;;4.03;;
24663;SDS011;12791;50.992;13.788;2022-10-31T06:46:32;6.00;;;3.90;;
24663;SDS011;12791;50.992;13.788;2022-10-31T06:48:59;4.68;;;3.17;;
24663;SDS011;12791;50.992;13.788;2022-10-31T06:51:26;6.75;;;4.00;;
24663;SDS011;12791;50.992;13.788;2022-10-31T06:53:55;4.47;;;3.47;;
24663;SDS011;12791;50.992;13.788;2022-10-31T06:56:22;5.70;;;4.03;;
24663;SDS011;12791;50.992;13.788;2022-10-31T06:58:49;6.53;;;4.35;;
24663;SDS011;12791;50.992;13.788;2022-10-31T07:01:16;6.57;;;4.47;;
24663;SDS011;12791;50.992;13.788;2022-10-31T07:03:42;7.38;;;4.80;;
24663;SDS011;12791;50.992;13.788;2022-10-31T07:06:09;7.03;;;4.45;;
24663;SDS011;12791;50.992;13.788;2022-10-31T07:08:36;8.00;;;4.38;;
24663;SDS011;12791;50.992;13.788;2022-10-31T07:11:05;6.05;;;4.07;;
24663;SDS011;12791;50.992;13.788;2022-10-31T07:13:32;11.65;;;4.65;;
24663;SDS011;12791;50.992;13.788;2022-10-31T07:16:00;9.77;;;5.35;;
24663;SDS011;12791;50.992;13.788;2022-10-31T07:18:28;7.28;;;6.13;;
24663;SDS011;12791;50.992;13.788;2022-10-31T07:20:56;8.68;;;5.55;;
24663;SDS011;12791;50.992;13.788;2022-10-31T07:23:23;7.07;;;5.22;;
24663;SDS011;12791;50.992;13.788;2022-10-31T07:25:54;10.18;;;5.38;;
24663;SDS011;12791;50.992;13.788;2022-10-31T07:28:24;12.40;;;6.25;;
24663;SDS011;12791;50.992;13.788;2022-10-31T07:30:52;8.68;;;5.78;;
24663;SDS011;12791;50.992;13.788;2022-10-31T07:33:21;8.98;;;6.85;;
24663;SDS011;12791;50.992;13.788;2022-10-31T07:35:48;8.45;;;6.95;;
24663;SDS011;12791;50.992;13.788;2022-10-31T07:38:17;8.68;;;7.10;;
24663;SDS011;12791;50.992;13.788;2022-10-31T07:40:48;9.10;;;7.05;;
24663;SDS011;12791;50.992;13.788;2022-10-31T07:43:19;8.10;;;7.25;;
24663;SDS011;12791;50.992;13.788;2022-10-31T07:45:52;10.48;;;7.90;;
24663;SDS011;12791;50.992;13.788;2022-10-31T07:48:19;10.82;;;8.30;;
24663;SDS011;12791;50.992;13.788;2022-10-31T07:50:49;11.07;;;8.25;;
24663;SDS011;12791;50.992;13.788;2022-10-31T07:53:16;8.95;;;8.00;;
24663;SDS011;12791;50.992;13.788;2022-10-31T07:55:43;8.75;;;7.85;;
24663;SDS011;12791;50.992;13.788;2022-10-31T07:58:11;10.07;;;7.95;;
24663;SDS011;12791;50.992;13.788;2022-10-31T08:00:39;9.60;;;8.35;;
24663;SDS011;12791;50.992;13.788;2022-10-31T08:03:08;10.00;;;8.60;;
24663;SDS011;12791;50.992;13.788;2022-10-31T08:05:37;14.77;;;8.13;;
24663;SDS011;12791;50.992;13.788;2022-10-31T08:08:06;7.80;;;6.85;;
24663;SDS011;12791;50.992;13.788;2022-10-31T08:10:34;12.27;;;7.38;;
24663;SDS011;12791;50.992;13.788;2022-10-31T08:13:02;11.05;;;7.50;;
24663;SDS011;12791;50.992;13.788;2022-10-31T08:15:30;11.23;;;7.70;;
24663;SDS011;12791;50.992;13.788;2022-10-31T08:17:59;8.85;;;7.43;;
24663;SDS011;12791;50.992;13.788;2022-10-31T08:20:28;10.88;;;7.32;;
24663;SDS011;12791;50.992;13.788;2022-10-31T08:22:55;10.23;;;8.18;;
24663;SDS011;12791;50.992;13.788;2022-10-31T08:25:23;9.30;;;8.13;;
24663;SDS011;12791;50.992;13.788;2022-10-31T08:27:51;14.32;;;9.30;;
24663;SDS011;12791;50.992;13.788;2022-10-31T08:30:19;11.50;;;8.07;;
24663;SDS011;12791;50.992;13.788;2022-10-31T08:32:46;9.90;;;8.20;;
24663;SDS011;12791;50.992;13.788;2022-10-31T08:35:13;14.60;;;8.25;;
24663;SDS011;12791;50.992;13.788;2022-10-31T08:37:42;10.60;;;7.90;;
24663;SDS011;12791;50.992;13.788;2022-10-31T08:40:09;10.13;;;7.32;;
24663;SDS011;12791;50.992;13.788;2022-10-31T08:42:38;9.30;;;7.28;;
24663;SDS011;12791;50.992;13.788;2022-10-31T08:45:05;12.52;;;7.22;;
24663;SDS011;12791;50.992;13.788;2022-10-31T08:47:32;10.63;;;7.10;;
24663;SDS011;12791;50.992;13.788;2022-10-31T08:49:59;8.27;;;6.32;;
24663;SDS011;12791;50.992;13.788;2022-10-31T08:52:26;11.98;;;6.95;;
24663;SDS011;12791;50.992;13.788;2022-10-31T08:54:54;11.75;;;7.05;;
24663;SDS011;12791;50.992;13.788;2022-10-31T08:57:21;13.60;;;7.40;;
24663;SDS011;12791;50.992;13.788;2022-10-31T08:59:48;10.15;;;6.80;;
24663;SDS011;12791;50.992;13.788;2022-10-31T09:02:15;10.55;;;6.75;;
24663;SDS011;12791;50.992;13.788;2022-10-31T09:04:42;10.18;;;7.65;;
24663;SDS011;12791;50.992;13.788;2022-10-31T09:07:08;8.60;;;6.53;;
24663;SDS011;12791;50.992;13.788;2022-10-31T09:09:35;10.20;;;6.68;;
24663;SDS011;12791;50.992;13.788;2022-10-31T09:12:04;9.60;;;6.13;;
24663;SDS011;12791;50.992;13.788;2022-10-31T09:14:31;7.32;;;5.90;;
24663;SDS011;12791;50.992;13.788;2022-10-31T09:16:58;10.73;;;6.72;;
24663;SDS011;12791;50.992;13.788;2022-10-31T09:19:24;9.30;;;5.47;;
24663;SDS011;12791;50.992;13.788;2022-10-31T09:21:51;9.55;;;6.65;;
24663;SDS011;12791;50.992;13.788;2022-10-31T09:24:19;7.50;;;5.30;;
24663;SDS011;12791;50.992;13.788;2022-10-31T09:26:46;7.63;;;5.43;;
24663;SDS011;12791;50.992;13.788;2022-10-31T09:29:14;8.00;;;5.00;;
24663;SDS011;12791;50.992;13.788;2022-10-31T09:31:41;6.45;;;5.03;;
24663;SDS011;12791;50.992;13.788;2022-10-31T09:34:08;7.28;;;5.70;;
24663;SDS011;12791;50.992;13.788;2022-10-31T09:36:35;8.45;;;6.57;;
24663;SDS011;12791;50.992;13.788;2022-10-31T09:39:02;7.25;;;6.53;;
24663;SDS011;12791;50.992;13.788;2022-10-31T09:41:33;7.95;;;6.03;;
24663;SDS011;12791;50.992;13.788;2022-10-31T09:44:36;8.07;;;7.00;;
24663;SDS011;12791;50.992;13.788;2022-10-31T09:47:17;9.75;;;6.65;;
24663;SDS011;12791;50.992;13.788;2022-10-31T09:49:59;8.38;;;7.38;;
24663;SDS011;12791;50.992;13.788;2022-10-31T09:52:33;8.82;;;6.95;;
24663;SDS011;12791;50.992;13.788;2022-10-31T09:55:02;10.40;;;7.30;;
24663;SDS011;12791;50.992;13.788;2022-10-31T09:57:32;11.40;;;7.68;;
24663;SDS011;12791;50.992;13.788;2022-10-31T10:00:03;10.73;;;7.47;;
24663;SDS011;12791;50.992;13.788;2022-10-31T10:02:38;8.35;;;7.03;;
24663;SDS011;12791;50.992;13.788;2022-10-31T10:05:09;10.88;;;6.95;;
24663;SDS011;12791;50.992;13.788;2022-10-31T10:07:41;7.63;;;6.63;;
24663;SDS011;12791;50.992;13.788;2022-10-31T10:10:17;8.57;;;6.95;;
24663;SDS011;12791;50.992;13.788;2022-10-31T10:12:55;11.95;;;7.03;;
24663;SDS011;12791;50.992;13.788;2022-10-31T10:15:39;7.57;;;6.15;;
24663;SDS011;12791;50.992;13.788;2022-10-31T10:18:22;8.45;;;6.25;;
24663;SDS011;12791;50.992;13.788;2022-10-31T10:21:04;9.48;;;6.15;;
24663;SDS011;12791;50.992;13.788;2022-10-31T10:23:45;7.18;;;5.57;;
24663;SDS011;12791;50.992;13.788;2022-10-31T10:26:19;7.43;;;5.18;;
24663;SDS011;12791;50.992;13.788;2022-10-31T10:28:47;8.10;;;5.30;;
24663;SDS011;12791;50.992;13.788;2022-10-31T10:31:20;7.25;;;4.70;;
24663;SDS011;12791;50.992;13.788;2022-10-31T10:33:55;8.30;;;5.03;;
24663;SDS011;12791;50.992;13.788;2022-10-31T10:36:27;9.15;;;4.82;;
24663;SDS011;12791;50.992;13.788;2022-10-31T10:39:02;7.70;;;4.28;;
24663;SDS011;12791;50.992;13.788;2022-10-31T10:41:31;8.50;;;4.65;;
24663;SDS011;12791;50.992;13.788;2022-10-31T10:43:58;6.68;;;4.22;;
24663;SDS011;12791;50.992;13.788;2022-10-31T10:46:28;5.72;;;4.50;;
24663;SDS011;12791;50.992;13.788;2022-10-31T10:49:18;6.43;;;4.57;;
24663;SDS011;12791;50.992;13.788;2022-10-31T10:51:51;7.97;;;4.55;;
24663;SDS011;12791;50.992;13.788;2022-10-31T10:54:39;9.48;;;4.55;;
24663;SDS011;12791;50.992;13.788;2022-10-31T10:57:15;7.60;;;4.65;;
24663;SDS011;12791;50.992;13.788;2022-10-31T10:59:48;6.38;;;4.80;;
24663;SDS011;12791;50.992;13.788;2022-10-31T11:02:17;6.07;;;4.65;;
24663;SDS011;12791;50.992;13.788;2022-10-31T11:04:45;8.27;;;5.63;;
24663;SDS011;12791;50.992;13.788;2022-10-31T11:07:15;5.47;;;4.93;;
24663;SDS011;12791;50.992;13.788;2022-10-31T11:09:42;6.53;;;5.63;;
24663;SDS011;12791;50.992;13.788;2022-10-31T11:12:10;13.93;;;6.55;;
24663;SDS011;12791;50.992;13.788;2022-10-31T11:14:44;11.07;;;6.38;;
24663;SDS011;12791;50.992;13.788;2022-10-31T11:17:19;11.27;;;6.68;;
24663;SDS011;12791;50.992;13.788;2022-10-31T11:20:02;11.45;;;6.85;;
24663;SDS011;12791;50.992;13.788;2022-10-31T11:22:31;10.70;;;6.93;;
24663;SDS011;12791;50.992;13.788;2022-10-31T11:24:58;11.15;;;6.05;;
24663;SDS011;12791;50.992;13.788;2022-10-31T11:27:25;10.13;;;6.43;;
24663;SDS011;12791;50.992;13.788;2022-10-31T11:29:52;13.25;;;6.90;;
24663;SDS011;12791;50.992;13.788;2022-10-31T11:32:30;7.60;;;6.15;;
24663;SDS011;12791;50.992;13.788;2022-10-31T11:34:59;11.63;;;6.40;;
24663;SDS011;12791;50.992;13.788;2022-10-31T11:37:29;6.85;;;5.35;;
24663;SDS011;12791;50.992;13.788;2022-10-31T11:40:00;7.82;;;5.60;;
24663;SDS011;12791;50.992;13.788;2022-10-31T11:42:30;9.55;;;6.15;;
24663;SDS011;12791;50.992;13.788;2022-10-31T11:45:05;8.00;;;5.60;;
24663;SDS011;12791;50.992;13.788;2022-10-31T11:47:41;10.85;;;6.00;;
24663;SDS011;12791;50.992;13.788;2022-10-31T11:50:11;10.07;;;6.00;;
24663;SDS011;12791;50.992;13.788;2022-10-31T11:52:46;15.57;;;7.38;;
24663;SDS011;12791;50.992;13.788;2022-10-31T11:55:14;11.32;;;8.48;;
24663;SDS011;12791;50.992;13.788;2022-10-31T11:57:44;10.82;;;7.78;;
24663;SDS011;12791;50.992;13.788;2022-10-31T12:00:20;10.27;;;7.60;;
24663;SDS011;12791;50.992;13.788;2022-10-31T12:02:50;18.85;;;10.18;;
24663;SDS011;12791;50.992;13.788;2022-10-31T12:05:17;12.27;;;8.82;;
24663;SDS011;12791;50.992;13.788;2022-10-31T12:07:47;11.20;;;7.97;;
24663;SDS011;12791;50.992;13.788;2022-10-31T12:10:15;14.43;;;8.93;;
24663;SDS011;12791;50.992;13.788;2022-10-31T12:12:48;10.90;;;8.35;;
24663;SDS011;12791;50.992;13.788;2022-10-31T12:15:29;20.05;;;8.85;;
24663;SDS011;12791;50.992;13.788;2022-10-31T12:21:01;15.43;;;8.60;;
24663;SDS011;12791;50.992;13.788;2022-10-31T12:23:38;15.00;;;8.73;;
24663;SDS011;12791;50.992;13.788;2022-10-31T12:26:16;11.80;;;7.45;;
24663;SDS011;12791;50.992;13.788;2022-10-31T12:28:53;10.25;;;8.15;;
24663;SDS011;12791;50.992;13.788;2022-10-31T12:31:35;11.82;;;8.73;;
24663;SDS011;12791;50.992;13.788;2022-10-31T12:34:30;13.18;;;9.55;;
24663;SDS011;12791;50.992;13.788;2022-10-31T12:37:21;17.55;;;9.52;;
24663;SDS011;12791;50.992;13.788;2022-10-31T12:40:01;9.88;;;6.93;;
24663;SDS011;12791;50.992;13.788;2022-10-31T12:42:46;13.20;;;8.55;;
24663;SDS011;12791;50.992;13.788;2022-10-31T12:45:29;13.65;;;8.50;;
24663;SDS011;12791;50.992;13.788;2022-10-31T12:48:19;14.73;;;8.68;;
24663;SDS011;12791;50.992;13.788;2022-10-31T12:51:03;13.23;;;8.95;;
24663;SDS011;12791;50.992;13.788;2022-10-31T12:53:41;14.55;;;8.80;;
24663;SDS011;12791;50.992;13.788;2022-10-31T12:56:21;12.38;;;8.13;;
24663;SDS011;12791;50.992;13.788;2022-10-31T12:59:07;11.02;;;7.78;;
24663;SDS011;12791;50.992;13.788;2022-10-31T13:04:10;12.40;;;7.90;;
24663;SDS011;12791;50.992;13.788;2022-10-31T13:06:44;15.85;;;7.85;;
24663;SDS011;12791;50.992;13.788;2022-10-31T13:09:17;14.40;;;6.82;;
24663;SDS011;12791;50.992;13.788;2022-10-31T13:11:47;9.25;;;5.72;;
24663;SDS011;12791;50.992;13.788;2022-10-31T13:14:19;10.50;;;6.05;;
24663;SDS011;12791;50.992;13.788;2022-10-31T13:16:52;6.55;;;5.18;;
24663;SDS011;12791;50.992;13.788;2022-10-31T13:19:22;11.02;;;6.50;;
24663;SDS011;12791;50.992;13.788;2022-10-31T13:21:55;10.73;;;5.57;;
24663;SDS011;12791;50.992;13.788;2022-10-31T13:24:28;8.98;;;5.68;;
24663;SDS011;12791;50.992;13.788;2022-10-31T13:27:01;7.88;;;5.75;;
24663;SDS011;12791;50.992;13.788;2022-10-31T13:29:30;12.85;;;6.65;;
24663;SDS011;12791;50.992;13.788;2022-10-31T13:32:04;12.20;;;6.93;;
24663;SDS011;12791;50.992;13.788;2022-10-31T13:34:33;14.02;;;6.60;;
24663;SDS011;12791;50.992;13.788;2022-10-31T13:37:09;10.98;;;6.07;;
24663;SDS011;12791;50.992;13.788;2022-10-31T13:40:00;7.45;;;5.93;;
24663;SDS011;12791;50.992;13.788;2022-10-31T13:42:39;6.05;;;5.00;;
24663;SDS011;12791;50.992;13.788;2022-10-31T13:45:16;6.15;;;4.85;;
24663;SDS011;12791;50.992;13.788;2022-10-31T13:47:54;6.85;;;4.85;;
24663;SDS011;12791;50.992;13.788;2022-10-31T13:50:22;6.68;;;4.55;;
24663;SDS011;12791;50.992;13.788;2022-10-31T13:52:52;7.95;;;4.55;;
24663;SDS011;12791;50.992;13.788;2022-10-31T13:55:38;5.35;;;4.57;;
24663;SDS011;12791;50.992;13.788;2022-10-31T13:58:19;6.38;;;4.70;;
24663;SDS011;12791;50.992;13.788;2022-10-31T14:00:57;6.45;;;5.07;;
24663;SDS011;12791;50.992;13.788;2022-10-31T14:03:32;5.25;;;4.43;;
24663;SDS011;12791;50.992;13.788;2022-10-31T14:06:01;5.60;;;4.75;;
24663;SDS011;12791;50.992;13.788;2022-10-31T14:08:30;6.43;;;5.07;;
24663;SDS011;12791;50.992;13.788;2022-10-31T14:11:01;10.27;;;5.43;;
24663;SDS011;12791;50.992;13.788;2022-10-31T14:13:29;5.47;;;4.57;;
24663;SDS011;12791;50.992;13.788;2022-10-31T14:18:31;5.18;;;4.53;;
24663;SDS011;12791;50.992;13.788;2022-10-31T14:21:00;6.22;;;4.95;;
24663;SDS011;12791;50.992;13.788;2022-10-31T14:23:36;6.25;;;4.28;;
24663;SDS011;12791;50.992;13.788;2022-10-31T14:26:30;8.18;;;5.97;;
24663;SDS011;12791;50.992;13.788;2022-10-31T14:28:59;7.25;;;4.45;;
24663;SDS011;12791;50.992;13.788;2022-10-31T14:31:51;7.15;;;5.28;;
24663;SDS011;12791;50.992;13.788;2022-10-31T14:37:12;7.72;;;6.00;;
24663;SDS011;12791;50.992;13.788;2022-10-31T14:42:51;9.85;;;6.32;;
24663;SDS011;12791;50.992;13.788;2022-10-31T14:45:45;11.90;;;7.38;;
24663;SDS011;12791;50.992;13.788;2022-10-31T14:48:29;12.30;;;7.03;;
24663;SDS011;12791;50.992;13.788;2022-10-31T14:51:13;13.60;;;7.63;;
24663;SDS011;12791;50.992;13.788;2022-10-31T14:53:43;11.68;;;7.85;;
24663;SDS011;12791;50.992;13.788;2022-10-31T14:56:16;9.80;;;6.63;;
24663;SDS011;12791;50.992;13.788;2022-10-31T14:58:50;9.30;;;6.53;;
24663;SDS011;12791;50.992;13.788;2022-10-31T15:01:21;9.18;;;6.35;;
24663;SDS011;12791;50.992;13.788;2022-10-31T15:03:51;10.68;;;6.28;;
24663;SDS011;12791;50.992;13.788;2022-10-31T15:06:19;11.73;;;6.97;;
24663;SDS011;12791;50.992;13.788;2022-10-31T15:08:49;9.00;;;6.57;;
24663;SDS011;12791;50.992;13.788;2022-10-31T15:11:18;8.75;;;6.25;;
24663;SDS011;12791;50.992;13.788;2022-10-31T15:13:46;9.35;;;6.55;;
24663;SDS011;12791;50.992;13.788;2022-10-31T15:16:16;10.32;;;7.15;;
24663;SDS011;12791;50.992;13.788;2022-10-31T15:18:47;14.10;;;7.35;;
24663;SDS011;12791;50.992;13.788;2022-10-31T15:21:19;13.15;;;7.82;;
24663;SDS011;12791;50.992;13.788;2022-10-31T15:23:50;14.52;;;7.85;;
24663;SDS011;12791;50.992;13.788;2022-10-31T15:26:20;12.23;;;7.80;;
24663;SDS011;12791;50.992;13.788;2022-10-31T15:28:58;16.15;;;8.77;;
24663;SDS011;12791;50.992;13.788;2022-10-31T15:31:28;12.68;;;8.38;;
24663;SDS011;12791;50.992;13.788;2022-10-31T15:33:57;10.25;;;8.38;;
24663;SDS011;12791;50.992;13.788;2022-10-31T15:36:28;13.60;;;8.48;;
24663;SDS011;12791;50.992;13.788;2022-10-31T15:38:55;9.35;;;7.72;;
24663;SDS011;12791;50.992;13.788;2022-10-31T15:41:30;15.18;;;8.68;;
24663;SDS011;12791;50.992;13.788;2022-10-31T15:44:01;15.93;;;9.02;;
24663;SDS011;12791;50.992;13.788;2022-10-31T15:46:34;12.77;;;9.10;;
24663;SDS011;12791;50.992;13.788;2022-10-31T15:49:01;16.23;;;9.23;;
24663;SDS011;12791;50.992;13.788;2022-10-31T15:51:28;12.27;;;8.98;;
24663;SDS011;12791;50.992;13.788;2022-10-31T15:53:58;12.68;;;8.98;;
24663;SDS011;12791;50.992;13.788;2022-10-31T15:56:27;10.38;;;9.27;;
24663;SDS011;12791;50.992;13.788;2022-10-31T15:58:56;12.70;;;9.57;;
24663;SDS011;12791;50.992;13.788;2022-10-31T16:01:26;13.55;;;9.77;;
24663;SDS011;12791;50.992;13.788;2022-10-31T16:03:58;14.05;;;10.35;;
24663;SDS011;12791;50.992;13.788;2022-10-31T16:06:27;11.68;;;9.25;;
24663;SDS011;12791;50.992;13.788;2022-10-31T16:08:54;18.50;;;10.20;;
24663;SDS011;12791;50.992;13.788;2022-10-31T16:11:23;14.75;;;10.13;;
24663;SDS011;12791;50.992;13.788;2022-10-31T16:13:57;14.40;;;10.02;;
24663;SDS011;12791;50.992;13.788;2022-10-31T16:16:26;12.80;;;10.63;;
24663;SDS011;12791;50.992;13.788;2022-10-31T16:18:54;10.15;;;9.15;;
24663;SDS011;12791;50.992;13.788;2022-10-31T16:21:24;11.10;;;9.07;;
24663;SDS011;12791;50.992;13.788;2022-10-31T16:23:56;11.93;;;7.90;;
24663;SDS011;12791;50.992;13.788;2022-10-31T16:26:26;11.93;;;8.95;;
24663;SDS011;12791;50.992;13.788;2022-10-31T16:28:54;11.55;;;8.55;;
24663;SDS011;12791;50.992;13.788;2022-10-31T16:31:27;14.40;;;8.30;;
24663;SDS011;12791;50.992;13.788;2022-10-31T16:34:02;10.30;;;8.60;;
24663;SDS011;12791;50.992;13.788;2022-10-31T16:36:33;11.07;;;7.95;;
24663;SDS011;12791;50.992;13.788;2022-10-31T16:39:03;12.63;;;8.47;;
24663;SDS011;12791;50.992;13.788;2022-10-31T16:41:30;10.80;;;8.70;;
24663;SDS011;12791;50.992;13.788;2022-10-31T16:44:01;11.73;;;8.60;;
24663;SDS011;12791;50.992;13.788;2022-10-31T16:46:28;15.15;;;9.05;;
24663;SDS011;12791;50.992;13.788;2022-10-31T16:48:55;10.93;;;8.77;;
24663;SDS011;12791;50.992;13.788;2022-10-31T16:51:22;14.45;;;8.98;;
24663;SDS011;12791;50.992;13.788;2022-10-31T16:53:51;14.07;;;8.73;;
24663;SDS011;12791;50.992;13.788;2022-10-31T16:56:21;14.18;;;9.55;;
24663;SDS011;12791;50.992;13.788;2022-10-31T16:58:53;15.18;;;8.60;;
24663;SDS011;12791;50.992;13.788;2022-10-31T17:01:20;9.35;;;8.00;;
24663;SDS011;12791;50.992;13.788;2022-10-31T17:03:47;13.63;;;8.82;;
24663;SDS011;12791;50.992;13.788;2022-10-31T17:06:14;14.57;;;9.77;;
24663;SDS011;12791;50.992;13.788;2022-10-31T17:08:41;14.02;;;10.50;;
24663;SDS011;12791;50.992;13.788;2022-10-31T17:11:10;13.65;;;9.52;;
24663;SDS011;12791;50.992;13.788;2022-10-31T17:13:41;13.98;;;10.13;;
24663;SDS011;12791;50.992;13.788;2022-10-31T17:16:08;15.05;;;10.18;;
24663;SDS011;12791;50.992;13.788;2022-10-31T17:18:37;13.50;;;10.35;;
24663;SDS011;12791;50.992;13.788;2022-10-31T17:21:04;13.52;;;9.75;;
24663;SDS011;12791;50.992;13.788;2022-10-31T17:23:32;15.02;;;9.70;;
24663;SDS011;12791;50.992;13.788;2022-10-31T17:25:59;14.38;;;9.80;;
24663;SDS011;12791;50.992;13.788;2022-10-31T17:28:28;12.75;;;9.23;;
24663;SDS011;12791;50.992;13.788;2022-10-31T17:30:57;14.70;;;10.30;;
24663;SDS011;12791;50.992;13.788;2022-10-31T17:33:26;12.48;;;10.02;;
24663;SDS011;12791;50.992;13.788;2022-10-31T17:35:53;12.82;;;9.93;;
24663;SDS011;12791;50.992;13.788;2022-10-31T17:38:20;14.68;;;10.30;;
24663;SDS011;12791;50.992;13.788;2022-10-31T17:40:48;14.13;;;9.75;;
24663;SDS011;12791;50.992;13.788;2022-10-31T17:43:17;12.40;;;9.85;;
24663;SDS011;12791;50.992;13.788;2022-10-31T17:45:53;15.10;;;10.13;;
24663;SDS011;12791;50.992;13.788;2022-10-31T17:48:20;11.82;;;10.60;;
24663;SDS011;12791;50.992;13.788;2022-10-31T17:50:46;12.88;;;10.18;;
24663;SDS011;12791;50.992;13.788;2022-10-31T17:53:14;12.82;;;9.73;;
24663;SDS011;12791;50.992;13.788;2022-10-31T17:55:41;13.70;;;9.65;;
24663;SDS011;12791;50.992;13.788;2022-10-31T17:58:17;12.82;;;10.48;;
24663;SDS011;12791;50.992;13.788;2022-10-31T18:00:50;16.42;;;11.02;;
24663;SDS011;12791;50.992;13.788;2022-10-31T18:03:19;13.02;;;10.88;;
24663;SDS011;12791;50.992;13.788;2022-10-31T18:05:50;15.90;;;11.38;;
24663;SDS011;12791;50.992;13.788;2022-10-31T18:08:33;17.42;;;11.63;;
24663;SDS011;12791;50.992;13.788;2022-10-31T18:11:11;15.63;;;11.03;;
24663;SDS011;12791;50.992;13.788;2022-10-31T18:16:48;20.55;;;12.85;;
24663;SDS011;12791;50.992;13.788;2022-10-31T18:19:37;18.25;;;12.32;;
24663;SDS011;12791;50.992;13.788;2022-10-31T18:22:17;17.70;;;12.90;;
24663;SDS011;12791;50.992;13.788;2022-10-31T18:24:44;15.18;;;12.35;;
24663;SDS011;12791;50.992;13.788;2022-10-31T18:27:11;16.38;;;13.25;;